createdAt,value
2018-09-17T00:00:17.339Z,100524.63
2018-09-17T00:02:46.887Z,100528.73
2018-09-17T00:05:16.430Z,100532.52
2018-09-17T00:07:45.974Z,100530.28
2018-09-17T00:10:15.571Z,100527.84
2018-09-17T00:12:45.159Z,100523.91
2018-09-17T00:15:14.667Z,100530.80
2018-09-17T00:17:44.207Z,100533.29
2018-09-17T00:20:13.699Z,100523.30
2018-09-17T00:22:43.259Z,100529.91
2018-09-17T00:25:12.831Z,100528.53
2018-09-17T00:27:42.483Z,100535.44
2018-09-17T00:30:12.078Z,100531.86
2018-09-17T00:32:41.681Z,100537.67
2018-09-17T00:35:11.227Z,100527.20
2018-09-17T00:37:40.738Z,100532.77
2018-09-17T00:40:10.275Z,100534.25
2018-09-17T00:42:39.774Z,100535.31
2018-09-17T00:45:09.310Z,100534.33
2018-09-17T00:47:38.825Z,100525.56
2018-09-17T00:50:08.415Z,100536.42
2018-09-17T00:52:37.900Z,100538.26
2018-09-17T00:55:07.443Z,100535.28
2018-09-17T00:57:36.995Z,100543.15
2018-09-17T01:00:06.663Z,100540.48
2018-09-17T01:02:36.153Z,100543.83
2018-09-17T01:05:05.815Z,100538.95
2018-09-17T01:07:35.306Z,100541.71
2018-09-17T01:10:05.102Z,100539.26
2018-09-17T01:12:34.630Z,100538.21
2018-09-17T01:15:04.239Z,100535.81
2018-09-17T01:17:33.722Z,100534.16
2018-09-17T01:20:03.342Z,100538.59
2018-09-17T01:22:32.856Z,100535.30
2018-09-17T01:25:02.403Z,100535.83
2018-09-17T01:27:31.890Z,100542.19
2018-09-17T01:30:01.403Z,100532.30
2018-09-17T01:32:30.923Z,100535.60
2018-09-17T01:35:00.431Z,100541.11
2018-09-17T01:37:29.950Z,100541.13
2018-09-17T01:39:59.481Z,100535.39
2018-09-17T01:42:28.980Z,100538.41
2018-09-17T01:44:58.457Z,100539.24
2018-09-17T01:47:27.930Z,100543.67
2018-09-17T01:49:57.458Z,100546.69
2018-09-17T01:52:26.926Z,100547.55
2018-09-17T01:54:56.413Z,100548.92
2018-09-17T01:57:26.261Z,100549.78
2018-09-17T01:59:55.779Z,100549.80
2018-09-17T02:02:25.239Z,100544.80
2018-09-17T02:04:54.764Z,100553.61
2018-09-17T02:07:24.271Z,100558.28
2018-09-17T02:09:53.834Z,100560.20
2018-09-17T02:12:23.336Z,100553.90
2018-09-17T02:14:52.806Z,100556.07
2018-09-17T02:17:22.352Z,100565.71
2018-09-17T02:19:51.863Z,100561.59
2018-09-17T02:22:21.406Z,100568.16
2018-09-17T02:24:51.005Z,100569.52
2018-09-17T02:27:20.631Z,100572.26
2018-09-17T02:29:50.174Z,100578.31
2018-09-17T02:32:19.676Z,100577.17
2018-09-17T02:34:49.245Z,100576.34
2018-09-17T02:37:18.771Z,100574.72
2018-09-17T02:39:48.307Z,100571.94
2018-09-17T02:42:17.845Z,100573.05
2018-09-17T02:44:47.354Z,100568.60
2018-09-17T02:47:16.993Z,100565.27
2018-09-17T02:49:46.539Z,100566.92
2018-09-17T02:52:16.097Z,100563.09
2018-09-17T02:54:45.596Z,100565.85
2018-09-17T02:57:15.158Z,100570.83
2018-09-17T02:59:44.666Z,100566.16
2018-09-17T03:02:14.194Z,100567.25
2018-09-17T03:04:43.737Z,100568.11
2018-09-17T03:07:13.234Z,100571.42
2018-09-17T03:09:42.824Z,100568.97
2018-09-17T03:12:12.435Z,100570.34
2018-09-17T03:14:41.998Z,100566.52
2018-09-17T03:17:13.775Z,100466.32
2018-09-17T03:19:44.267Z,100572.29
2018-09-17T03:22:14.424Z,100578.94
2018-09-17T03:24:43.988Z,100582.50
2018-09-17T03:27:13.529Z,100585.53
2018-09-17T03:29:43.101Z,100590.52
2018-09-17T03:32:12.662Z,100593.80
2018-09-17T03:34:42.227Z,100592.98
2018-09-17T03:37:11.755Z,100597.67
2018-09-17T03:39:41.343Z,100602.06
2018-09-17T03:42:10.874Z,100601.78
2018-09-17T03:44:40.388Z,100608.16
2018-09-17T03:47:09.940Z,100607.61
2018-09-17T03:49:39.502Z,100612.28
2018-09-17T03:52:09.002Z,100612.83
2018-09-17T03:54:38.565Z,100607.31
2018-09-17T03:57:08.127Z,100612.02
2018-09-17T03:59:37.622Z,100612.03
2018-09-17T04:02:07.181Z,100614.52
2018-09-17T04:04:36.954Z,100619.47
2018-09-17T04:07:06.512Z,100622.22
2018-09-17T04:09:36.016Z,100626.37
2018-09-17T04:12:05.602Z,100625.77
2018-09-17T04:14:35.162Z,100623.56
2018-09-17T04:17:04.721Z,100626.33
2018-09-17T04:19:34.264Z,100622.45
2018-09-17T04:22:03.844Z,100629.63
2018-09-17T04:24:33.338Z,100634.30
2018-09-17T04:27:02.858Z,100631.23
2018-09-17T04:29:32.387Z,100637.30
2018-09-17T04:32:01.942Z,100643.65
2018-09-17T04:34:31.534Z,100648.05
2018-09-17T04:37:01.103Z,100652.72
2018-09-17T04:39:30.718Z,100649.42
2018-09-17T04:42:00.326Z,100555.95
2018-09-17T04:44:29.824Z,100650.52
2018-09-17T04:46:59.406Z,100651.09
2018-09-17T04:49:28.908Z,100652.43
2018-09-17T04:51:58.441Z,100650.53
2018-09-17T04:54:27.934Z,100651.61
2018-09-17T04:56:57.473Z,100654.09
2018-09-17T04:59:27.036Z,100656.31
2018-09-17T05:01:56.616Z,100658.77
2018-09-17T05:04:26.247Z,100667.86
2018-09-17T05:06:55.751Z,100663.69
2018-09-17T05:09:25.338Z,100664.23
2018-09-17T05:11:55.039Z,100664.48
2018-09-17T05:14:24.584Z,100665.83
2018-09-17T05:16:54.115Z,100664.23
2018-09-17T05:19:23.695Z,100665.54
2018-09-17T05:21:53.287Z,100668.03
2018-09-17T05:24:22.856Z,100667.44
2018-09-17T05:26:52.664Z,100664.09
2018-09-17T05:29:22.310Z,100664.09
2018-09-17T05:31:52.199Z,100664.03
2018-09-17T05:34:22.662Z,100659.12
2018-09-17T05:36:52.214Z,100664.98
2018-09-17T05:39:21.860Z,100660.18
2018-09-17T05:41:53.157Z,100668.34
2018-09-17T05:44:22.743Z,100670.75
2018-09-17T05:46:52.251Z,100518.56
2018-09-17T05:49:21.791Z,100666.42
2018-09-17T05:51:51.367Z,100664.83
2018-09-17T05:54:20.888Z,100674.42
2018-09-17T05:56:50.468Z,100670.22
2018-09-17T05:59:20.034Z,100668.17
2018-09-17T06:01:50.256Z,100670.78
2018-09-17T06:04:19.738Z,100670.95
2018-09-17T06:06:49.346Z,100667.01
2018-09-17T06:09:18.851Z,100669.69
2018-09-17T06:11:48.429Z,100671.59
2018-09-17T06:14:17.991Z,100671.73
2018-09-17T06:16:47.524Z,100675.77
2018-09-17T06:19:17.085Z,100677.26
2018-09-17T06:21:46.686Z,100669.92
2018-09-17T06:24:16.263Z,100673.54
2018-09-17T06:26:45.882Z,100676.83
2018-09-17T06:29:15.566Z,100682.53
2018-09-17T06:31:45.183Z,100680.84
2018-09-17T06:34:14.763Z,100681.63
2018-09-17T06:36:44.331Z,100681.23
2018-09-17T06:39:13.951Z,100682.26
2018-09-17T06:41:43.537Z,100682.92
2018-09-17T06:44:13.123Z,100689.94
2018-09-17T06:46:42.709Z,100683.66
2018-09-17T06:49:12.249Z,100687.25
2018-09-17T06:51:41.818Z,100692.55
2018-09-17T06:54:11.371Z,100692.88
2018-09-17T06:56:41.040Z,100703.78
2018-09-17T06:59:10.790Z,100694.00
2018-09-17T07:01:40.408Z,100692.69
2018-09-17T07:04:10.145Z,100692.78
2018-09-17T07:06:39.833Z,100699.75
2018-09-17T07:09:11.484Z,100694.84
2018-09-17T07:11:41.111Z,100702.20
2018-09-17T07:14:10.970Z,100608.02
2018-09-17T07:16:40.626Z,100707.24
2018-09-17T07:19:10.239Z,100701.42
2018-09-17T07:21:39.844Z,100716.83
2018-09-17T07:24:09.857Z,100717.46
2018-09-17T07:26:39.715Z,100708.03
2018-09-17T07:29:09.353Z,100711.46
2018-09-17T07:31:38.940Z,100706.75
2018-09-17T07:34:08.720Z,100705.10
2018-09-17T07:36:38.377Z,100704.56
2018-09-17T07:39:10.104Z,100710.01
2018-09-17T07:41:39.882Z,100703.97
2018-09-17T07:44:09.520Z,100703.95
2018-09-17T07:46:39.099Z,100705.36
2018-09-17T07:49:08.657Z,100705.50
2018-09-17T07:51:38.280Z,100709.41
2018-09-17T07:54:07.895Z,100707.62
2018-09-17T07:56:37.578Z,100707.48
2018-09-17T07:59:07.328Z,100701.89
2018-09-17T08:01:37.015Z,100702.89
2018-09-17T08:04:06.594Z,100702.39
2018-09-17T08:06:37.498Z,100698.27
2018-09-17T08:09:10.537Z,100689.44
2018-09-17T08:11:41.057Z,100691.41
2018-09-17T08:14:11.139Z,100694.50
2018-09-17T08:16:41.697Z,100701.81
2018-09-17T08:19:11.775Z,100689.94
2018-09-17T08:21:41.344Z,100686.41
2018-09-17T08:24:10.959Z,100685.84
2018-09-17T08:26:40.539Z,100686.89
2018-09-17T08:29:10.320Z,100688.11
2018-09-17T08:31:39.866Z,100685.19
2018-09-17T08:34:09.510Z,100680.66
2018-09-17T08:36:39.422Z,100675.68
2018-09-17T08:39:12.418Z,100671.66
2018-09-17T08:41:43.212Z,100667.48
2018-09-17T08:44:13.058Z,100663.31
2018-09-17T08:46:43.497Z,100660.34
2018-09-17T08:49:14.285Z,100670.20
2018-09-17T08:51:44.726Z,100663.80
2018-09-17T08:54:15.241Z,100661.44
2018-09-17T08:56:49.738Z,100653.73
2018-09-17T08:59:24.439Z,100661.58
2018-09-17T09:02:01.156Z,100649.12
2018-09-17T09:04:36.318Z,100652.70
2018-09-17T09:07:07.491Z,100645.45
2018-09-17T09:09:37.265Z,100647.80
2018-09-17T09:12:40.874Z,100644.77
2018-09-17T09:15:15.406Z,100641.51
2018-09-17T09:17:45.097Z,100632.88
2018-09-17T09:20:14.959Z,100632.46
2018-09-17T09:22:44.796Z,100630.91
2018-09-17T09:25:14.621Z,100636.56
2018-09-17T09:27:44.384Z,100624.48
2018-09-17T09:30:14.095Z,100626.38
2018-09-17T09:32:43.651Z,100620.06
2018-09-17T09:35:13.520Z,100614.38
2018-09-17T09:37:43.926Z,100617.20
2018-09-17T09:40:13.936Z,100614.03
2018-09-17T09:42:44.767Z,100607.90
2018-09-17T09:45:15.224Z,100606.30
2018-09-17T09:47:45.364Z,100601.61
2018-09-17T09:50:14.984Z,100599.55
2018-09-17T09:52:44.596Z,100607.75
2018-09-17T09:55:14.079Z,100597.31
2018-09-17T09:57:43.660Z,100594.88
2018-09-17T10:00:18.333Z,100605.53
2018-09-17T10:02:48.663Z,100599.09
2018-09-17T10:05:18.188Z,100594.62
2018-09-17T10:07:47.882Z,100590.58
2018-09-17T10:10:22.642Z,100589.34
2018-09-17T10:12:57.332Z,100586.59
2018-09-17T10:15:31.775Z,100580.21
2018-09-17T10:18:06.327Z,100578.30
2018-09-17T10:20:35.896Z,100575.61
2018-09-17T10:23:05.488Z,100581.28
2018-09-17T10:25:35.038Z,100576.02
2018-09-17T10:28:04.628Z,100567.92
2018-09-17T10:30:34.323Z,100569.47
2018-09-17T10:33:04.049Z,100570.59
2018-09-17T10:35:33.636Z,100564.05
2018-09-17T10:38:03.615Z,100566.33
2018-09-17T10:40:33.137Z,100566.56
2018-09-17T10:43:02.856Z,100560.09
2018-09-17T10:45:32.439Z,100558.28
2018-09-17T10:48:02.019Z,100558.58
2018-09-17T10:50:31.536Z,100555.17
2018-09-17T10:53:01.284Z,100559.93
2018-09-17T10:55:30.859Z,100555.23
2018-09-17T10:58:00.439Z,100549.31
2018-09-17T11:00:30.007Z,100536.13
2018-09-17T11:02:59.575Z,100546.27
2018-09-17T11:05:29.089Z,100538.87
2018-09-17T11:07:58.671Z,100540.27
2018-09-17T11:10:28.299Z,100540.16
2018-09-17T11:12:57.820Z,100541.13
2018-09-17T11:15:32.251Z,100532.39
2018-09-17T11:18:01.807Z,100524.47
2018-09-17T11:20:31.417Z,100527.58
2018-09-17T11:23:01.075Z,100528.45
2018-09-17T11:25:32.299Z,100526.55
2018-09-17T11:28:01.902Z,100518.13
2018-09-17T11:30:31.454Z,100515.53
2018-09-17T11:33:01.042Z,100517.50
2018-09-17T11:35:30.565Z,100523.61
2018-09-17T11:38:00.098Z,100519.05
2018-09-17T11:40:29.663Z,100504.53
2018-09-17T11:42:59.224Z,100497.77
2018-09-17T11:45:28.752Z,100415.72
2018-09-17T11:47:58.326Z,100499.74
2018-09-17T11:50:27.891Z,100497.98
2018-09-17T11:52:57.470Z,100491.02
2018-09-17T11:55:27.168Z,100487.73
2018-09-17T11:57:56.723Z,100496.80
2018-09-17T12:00:31.339Z,100491.41
2018-09-17T12:03:05.824Z,100483.41
2018-09-17T12:05:40.384Z,100479.28
2018-09-17T12:08:14.031Z,100480.95
2018-09-17T12:10:43.581Z,100476.48
2018-09-17T12:13:13.098Z,100467.81
2018-09-17T12:15:45.313Z,100464.95
2018-09-17T12:18:15.032Z,100455.09
2018-09-17T12:20:44.599Z,100452.08
2018-09-17T12:23:14.132Z,100450.98
2018-09-17T12:25:43.695Z,100444.89
2018-09-17T12:28:13.334Z,100453.95
2018-09-17T12:30:43.969Z,100450.06
2018-09-17T12:33:13.687Z,100454.33
2018-09-17T12:35:43.588Z,100448.20
2018-09-17T12:38:13.309Z,100439.17
2018-09-17T12:40:44.118Z,100441.12
2018-09-17T12:43:14.428Z,100433.13
2018-09-17T12:45:44.191Z,100438.06
2018-09-17T12:48:14.340Z,100432.27
2018-09-17T12:50:44.005Z,100437.06
2018-09-17T12:53:13.708Z,100437.77
2018-09-17T12:55:43.421Z,100433.13
2018-09-17T12:58:13.617Z,100430.91
2018-09-17T13:00:43.278Z,100425.94
2018-09-17T13:03:13.016Z,100421.55
2018-09-17T13:05:42.679Z,100410.20
2018-09-17T13:08:12.257Z,100411.52
2018-09-17T13:10:41.775Z,100413.50
2018-09-17T13:13:11.392Z,100409.12
2018-09-17T13:15:46.115Z,100407.92
2018-09-17T13:18:15.931Z,100409.31
2018-09-17T13:20:45.647Z,100414.05
2018-09-17T13:23:15.268Z,100401.36
2018-09-17T13:25:44.885Z,100401.98
2018-09-17T13:28:14.617Z,100396.31
2018-09-17T13:30:44.241Z,100393.02
2018-09-17T13:33:13.859Z,100394.22
2018-09-17T13:35:43.440Z,100388.28
2018-09-17T13:38:13.013Z,100391.16
2018-09-17T13:40:42.560Z,100382.34
2018-09-17T13:43:12.091Z,100372.38
2018-09-17T13:45:41.734Z,100377.04
2018-09-17T13:48:11.258Z,100372.87
2018-09-17T13:50:40.831Z,100377.26
2018-09-17T13:53:10.442Z,100374.02
2018-09-17T13:55:39.934Z,100368.79
2018-09-17T13:58:10.391Z,100367.16
2018-09-17T14:00:40.016Z,100364.95
2018-09-17T14:03:09.780Z,100365.63
2018-09-17T14:05:39.364Z,100358.63
2018-09-17T14:08:08.930Z,100362.72
2018-09-17T14:10:38.509Z,100354.94
2018-09-17T14:13:08.709Z,100350.09
2018-09-17T14:15:38.357Z,100350.30
2018-09-17T14:18:07.924Z,100342.64
2018-09-17T14:20:37.549Z,100342.15
2018-09-17T14:23:07.482Z,100344.02
2018-09-17T14:25:37.056Z,100338.91
2018-09-17T14:28:06.819Z,100335.06
2018-09-17T14:30:36.407Z,100338.89
2018-09-17T14:33:11.172Z,100346.78
2018-09-17T14:35:40.799Z,100339.58
2018-09-17T14:38:10.408Z,100339.36
2018-09-17T14:40:40.085Z,100334.23
2018-09-17T14:43:09.642Z,100334.91
2018-09-17T14:45:40.020Z,100335.45
2018-09-17T14:48:09.850Z,100344.09
2018-09-17T14:50:39.541Z,100328.51
2018-09-17T14:53:09.107Z,100329.79
2018-09-17T14:55:38.687Z,100328.48
2018-09-17T14:58:08.272Z,100332.19
2018-09-17T15:00:37.843Z,100323.32
2018-09-17T15:03:07.839Z,100325.66
2018-09-17T15:05:37.496Z,100329.78
2018-09-17T15:08:07.548Z,100336.27
2018-09-17T15:10:37.038Z,100333.12
2018-09-17T15:13:06.741Z,100333.66
2018-09-17T15:16:06.523Z,100339.57
2018-09-17T15:18:36.135Z,100337.00
2018-09-17T15:21:05.678Z,100341.87
2018-09-17T15:23:35.267Z,100338.61
2018-09-17T15:26:05.225Z,100341.72
2018-09-17T15:28:34.742Z,100343.86
2018-09-17T15:31:04.394Z,100339.43
2018-09-17T15:33:33.908Z,100336.15
2018-09-17T15:36:03.483Z,100337.55
2018-09-17T15:38:33.020Z,100347.72
2018-09-17T15:41:02.755Z,100340.88
2018-09-17T15:43:32.183Z,100345.53
2018-09-17T15:46:01.740Z,100349.81
2018-09-17T15:48:31.297Z,100343.70
2018-09-17T15:51:00.883Z,100355.33
2018-09-17T15:53:30.459Z,100354.95
2018-09-17T15:56:00.284Z,100367.73
2018-09-17T15:58:29.852Z,100358.36
2018-09-17T16:00:59.461Z,100364.95
2018-09-17T16:03:28.936Z,100362.61
2018-09-17T16:05:58.535Z,100366.44
2018-09-17T16:08:28.091Z,100358.00
2018-09-17T16:10:57.609Z,100358.50
2018-09-17T16:13:27.149Z,100361.46
2018-09-17T16:15:56.669Z,100367.28
2018-09-17T16:18:26.272Z,100365.81
2018-09-17T16:20:55.819Z,100365.81
2018-09-17T16:23:25.330Z,100369.72
2018-09-17T16:25:54.907Z,100368.31
2018-09-17T16:28:24.429Z,100367.59
2018-09-17T16:30:53.987Z,100377.41
2018-09-17T16:33:23.542Z,100369.74
2018-09-17T16:35:53.136Z,100369.88
2018-09-17T16:38:22.658Z,100376.13
2018-09-17T16:40:52.226Z,100374.97
2018-09-17T16:43:21.739Z,100381.97
2018-09-17T16:45:51.234Z,100383.25
2018-09-17T16:48:20.784Z,100384.11
2018-09-17T16:50:50.331Z,100387.00
2018-09-17T16:53:19.953Z,100385.69
2018-09-17T16:55:49.410Z,100392.05
2018-09-17T16:58:19.039Z,100393.75
2018-09-17T17:00:48.857Z,100387.62
2018-09-17T17:03:18.466Z,100388.59
2018-09-17T17:05:48.017Z,100396.06
2018-09-17T17:08:17.571Z,100403.23
2018-09-17T17:10:47.131Z,100397.33
2018-09-17T17:13:16.658Z,100401.61
2018-09-17T17:15:48.561Z,100408.30
2018-09-17T17:18:19.495Z,100410.57
2018-09-17T17:20:49.070Z,100410.07
2018-09-17T17:23:18.559Z,100412.34
2018-09-17T17:25:48.088Z,100413.37
2018-09-17T17:28:17.898Z,100415.64
2018-09-17T17:30:47.671Z,100416.18
2018-09-17T17:33:17.260Z,100416.63
2018-09-17T17:35:46.835Z,100416.19
2018-09-17T17:38:16.414Z,100413.22
2018-09-17T17:40:46.016Z,100407.52
2018-09-17T17:43:15.531Z,100414.59
2018-09-17T17:45:45.115Z,100418.55
2018-09-17T17:48:14.615Z,100422.53
2018-09-17T17:50:44.154Z,100426.04
2018-09-17T17:53:13.716Z,100426.41
2018-09-17T17:55:43.316Z,100430.22
2018-09-17T17:58:12.838Z,100427.45
2018-09-17T18:00:42.417Z,100427.76
2018-09-17T18:03:11.982Z,100437.31
2018-09-17T18:05:41.516Z,100442.34
2018-09-17T18:08:11.099Z,100447.13
2018-09-17T18:10:40.684Z,100451.08
2018-09-17T18:13:10.276Z,100450.69
2018-09-17T18:15:39.977Z,100445.21
2018-09-17T18:18:09.532Z,100448.28
2018-09-17T18:20:39.190Z,100454.48
2018-09-17T18:23:08.713Z,100449.30
2018-09-17T18:25:38.239Z,100457.27
2018-09-17T18:28:07.768Z,100453.38
2018-09-17T18:30:37.308Z,100459.59
2018-09-17T18:33:06.862Z,100465.20
2018-09-17T18:35:36.463Z,100459.16
2018-09-17T18:38:06.298Z,100456.95
2018-09-17T18:40:35.970Z,100450.17
2018-09-17T18:43:05.551Z,100450.80
2018-09-17T18:45:35.151Z,100447.81
2018-09-17T18:48:04.750Z,100448.47
2018-09-17T18:50:34.305Z,100447.92
2018-09-17T18:53:03.887Z,100445.12
2018-09-17T18:55:33.400Z,100446.50
2018-09-17T18:58:02.927Z,100443.28
2018-09-17T19:00:32.441Z,100444.39
2018-09-17T19:03:02.010Z,100449.51
2018-09-17T19:05:31.615Z,100454.98
2018-09-17T19:08:01.254Z,100449.86
2018-09-17T19:10:30.852Z,100452.34
2018-09-17T19:13:00.437Z,100455.78
2018-09-17T19:15:35.003Z,100448.34
2018-09-17T19:18:09.742Z,100444.49
2018-09-17T19:20:39.458Z,100446.80
2018-09-17T19:23:13.832Z,100367.62
2018-09-17T19:25:43.371Z,100452.99
2018-09-17T19:28:18.092Z,100453.85
2018-09-17T19:30:47.693Z,100459.24
2018-09-17T19:33:17.256Z,100455.34
2018-09-17T19:35:46.870Z,100458.83
2018-09-17T19:38:21.445Z,100453.39
2018-09-17T19:40:51.035Z,100461.31
2018-09-17T19:43:20.503Z,100457.55
2018-09-17T19:45:55.241Z,100454.55
2018-09-17T19:48:24.746Z,100461.45
2018-09-17T19:50:59.415Z,100468.84
2018-09-17T19:53:28.907Z,100464.37
2018-09-17T19:55:58.591Z,100467.67
2018-09-17T19:58:33.038Z,100471.05
2018-09-17T20:01:02.576Z,100482.33
2018-09-17T20:03:32.082Z,100481.56
2018-09-17T20:06:06.582Z,100483.19
2018-09-17T20:08:36.135Z,100484.36
2018-09-17T20:11:05.747Z,100481.52
2018-09-17T20:13:35.282Z,100490.73
2018-09-17T20:16:04.791Z,100495.40
2018-09-17T20:18:34.315Z,100490.03
2018-09-17T20:21:03.928Z,100496.05
2018-09-17T20:23:33.422Z,100502.66
2018-09-17T20:26:03.013Z,100506.91
2018-09-17T20:28:32.644Z,100507.73
2018-09-17T20:31:02.130Z,100400.27
2018-09-17T20:33:33.379Z,100502.61
2018-09-17T20:36:03.003Z,100508.63
2018-09-17T20:38:32.689Z,100508.41
2018-09-17T20:41:02.216Z,100521.07
2018-09-17T20:43:31.743Z,100519.44
2018-09-17T20:46:01.272Z,100521.77
2018-09-17T20:48:30.784Z,100521.70
2018-09-17T20:51:00.337Z,100516.25
2018-09-17T20:53:29.870Z,100519.61
2018-09-17T20:55:59.396Z,100521.62
2018-09-17T20:58:28.950Z,100523.12
2018-09-17T21:00:58.668Z,100521.39
2018-09-17T21:03:28.018Z,100523.09
2018-09-17T21:05:57.570Z,100522.84
2018-09-17T21:08:27.103Z,100527.28
2018-09-17T21:10:56.607Z,100536.42
2018-09-17T21:13:26.186Z,100539.72
2018-09-17T21:15:55.705Z,100537.78
2018-09-17T21:18:25.243Z,100535.53
2018-09-17T21:20:54.784Z,100538.79
2018-09-17T21:23:24.367Z,100537.66
2018-09-17T21:25:53.866Z,100541.55
2018-09-17T21:28:23.344Z,100542.67
2018-09-17T21:30:52.926Z,100547.66
2018-09-17T21:33:22.432Z,100549.56
2018-09-17T21:35:51.896Z,100551.62
2018-09-17T21:38:21.467Z,100545.80
2018-09-17T21:40:51.053Z,100554.14
2018-09-17T21:43:20.632Z,100548.48
2018-09-17T21:45:50.135Z,100558.09
2018-09-17T21:48:19.687Z,100552.02
2018-09-17T21:50:49.188Z,100557.86
2018-09-17T21:53:18.703Z,100553.45
2018-09-17T21:55:48.194Z,100549.03
2018-09-17T21:58:17.678Z,100552.67
2018-09-17T22:00:52.348Z,100552.97
2018-09-17T22:03:21.895Z,100555.67
2018-09-17T22:05:51.387Z,100556.50
2018-09-17T22:08:20.946Z,100563.11
2018-09-17T22:10:50.447Z,100567.80
2018-09-17T22:13:19.996Z,100575.27
2018-09-17T22:15:49.520Z,100564.32
2018-09-17T22:18:19.167Z,100568.43
2018-09-17T22:20:48.740Z,100566.49
2018-09-17T22:23:18.311Z,100567.91
2018-09-17T22:25:47.815Z,100579.31
2018-09-17T22:28:17.346Z,100573.47
2018-09-17T22:30:46.873Z,100582.86
2018-09-17T22:33:16.412Z,100581.23
2018-09-17T22:35:45.926Z,100580.70
2018-09-17T22:38:15.450Z,100579.31
2018-09-17T22:40:45.171Z,100573.83
2018-09-17T22:43:14.702Z,100577.66
2018-09-17T22:45:44.198Z,100580.98
2018-09-17T22:48:13.706Z,100584.55
2018-09-17T22:50:43.269Z,100583.76
2018-09-17T22:53:12.900Z,100584.03
2018-09-17T22:55:42.392Z,100587.63
2018-09-17T22:58:11.939Z,100592.30
2018-09-17T23:00:41.447Z,100592.03
2018-09-17T23:03:10.991Z,100592.58
2018-09-17T23:05:40.523Z,100598.36
2018-09-17T23:08:10.022Z,100600.02
2018-09-17T23:10:39.567Z,100596.75
2018-09-17T23:13:09.059Z,100593.98
2018-09-17T23:15:38.605Z,100597.86
2018-09-17T23:18:08.147Z,100598.45
2018-09-17T23:20:37.698Z,100601.47
2018-09-17T23:23:07.215Z,100604.23
2018-09-17T23:25:37.084Z,100601.73
2018-09-17T23:28:06.964Z,100609.48
2018-09-17T23:30:36.487Z,100607.24
2018-09-17T23:33:06.102Z,100603.11
2018-09-17T23:35:35.627Z,100603.69
2018-09-17T23:38:05.126Z,100604.52
2018-09-17T23:40:34.771Z,100609.48
2018-09-17T23:43:04.372Z,100602.87
2018-09-17T23:45:33.928Z,100605.07
2018-09-17T23:48:03.532Z,100609.20
2018-09-17T23:50:33.063Z,100609.20
2018-09-17T23:53:02.604Z,100603.70
2018-09-17T23:55:32.107Z,100614.98
2018-09-17T23:58:01.635Z,100613.88
